sensor_id;sensor_type;location;lat;lon;timestamp;temperature;humidity
13330;DHT22;6734;48.638;8.896;2023-07-31T00:02:52;13.50;99.90
13330;DHT22;6734;48.638;8.896;2023-07-31T00:07:43;13.50;99.90
13330;DHT22;6734;48.638;8.896;2023-07-31T00:10:09;13.40;99.90
13330;DHT22;6734;48.638;8.896;2023-07-31T00:17:27;13.40;99.90
13330;DHT22;6734;48.638;8.896;2023-07-31T00:19:53;13.30;99.90
13330;DHT22;6734;48.638;8.896;2023-07-31T00:22:18;13.30;99.90
13330;DHT22;6734;48.638;8.896;2023-07-31T00:27:10;13.20;99.90
13330;DHT22;6734;48.638;8.896;2023-07-31T00:29:36;13.30;99.90
13330;DHT22;6734;48.638;8.896;2023-07-31T00:36:53;13.10;99.90
13330;DHT22;6734;48.638;8.896;2023-07-31T00:39:19;13.10;99.90
13330;DHT22;6734;48.638;8.896;2023-07-31T00:41:44;13.10;99.90
13330;DHT22;6734;48.638;8.896;2023-07-31T00:44:10;13.00;99.90
13330;DHT22;6734;48.638;8.896;2023-07-31T00:46:36;13.00;99.90
13330;DHT22;6734;48.638;8.896;2023-07-31T00:49:02;13.00;99.90
13330;DHT22;6734;48.638;8.896;2023-07-31T00:51:27;12.90;99.90
13330;DHT22;6734;48.638;8.896;2023-07-31T00:56:23;13.00;99.90
13330;DHT22;6734;48.638;8.896;2023-07-31T00:58:49;13.10;99.90
13330;DHT22;6734;48.638;8.896;2023-07-31T01:01:15;13.10;99.90
13330;DHT22;6734;48.638;8.896;2023-07-31T01:03:41;13.10;99.90
13330;DHT22;6734;48.638;8.896;2023-07-31T01:06:19;13.40;99.90
13330;DHT22;6734;48.638;8.896;2023-07-31T01:11:25;13.30;99.90
13330;DHT22;6734;48.638;8.896;2023-07-31T01:13:51;13.30;99.90
13330;DHT22;6734;48.638;8.896;2023-07-31T01:16:18;13.30;99.90
13330;DHT22;6734;48.638;8.896;2023-07-31T01:18:43;13.30;99.90
13330;DHT22;6734;48.638;8.896;2023-07-31T01:24:09;13.40;99.90
13330;DHT22;6734;48.638;8.896;2023-07-31T01:26:45;13.40;99.90
13330;DHT22;6734;48.638;8.896;2023-07-31T01:32:02;13.20;99.90
13330;DHT22;6734;48.638;8.896;2023-07-31T01:34:29;13.10;99.90
13330;DHT22;6734;48.638;8.896;2023-07-31T01:36:56;13.20;99.90
13330;DHT22;6734;48.638;8.896;2023-07-31T01:39:22;13.20;99.90
13330;DHT22;6734;48.638;8.896;2023-07-31T01:44:14;13.10;99.90
13330;DHT22;6734;48.638;8.896;2023-07-31T01:46:39;13.20;99.90
13330;DHT22;6734;48.638;8.896;2023-07-31T01:51:31;13.40;99.90
13330;DHT22;6734;48.638;8.896;2023-07-31T01:56:26;13.30;99.90
13330;DHT22;6734;48.638;8.896;2023-07-31T01:58:51;13.20;99.90
13330;DHT22;6734;48.638;8.896;2023-07-31T02:03:43;12.80;99.90
13330;DHT22;6734;48.638;8.896;2023-07-31T02:06:08;12.70;99.90
13330;DHT22;6734;48.638;8.896;2023-07-31T02:11:00;12.70;99.90
13330;DHT22;6734;48.638;8.896;2023-07-31T02:13:25;12.50;99.90
13330;DHT22;6734;48.638;8.896;2023-07-31T02:15:51;12.50;99.90
13330;DHT22;6734;48.638;8.896;2023-07-31T02:20:43;12.60;99.90
13330;DHT22;6734;48.638;8.896;2023-07-31T02:23:11;12.70;99.90
13330;DHT22;6734;48.638;8.896;2023-07-31T02:25:37;12.80;99.90
13330;DHT22;6734;48.638;8.896;2023-07-31T02:28:02;12.70;99.90
13330;DHT22;6734;48.638;8.896;2023-07-31T02:30:28;12.60;99.90
13330;DHT22;6734;48.638;8.896;2023-07-31T02:32:53;12.60;99.90
13330;DHT22;6734;48.638;8.896;2023-07-31T02:35:19;12.50;99.90
13330;DHT22;6734;48.638;8.896;2023-07-31T02:37:45;12.30;99.90
13330;DHT22;6734;48.638;8.896;2023-07-31T02:40:10;12.20;99.90
13330;DHT22;6734;48.638;8.896;2023-07-31T02:47:28;12.20;99.90
13330;DHT22;6734;48.638;8.896;2023-07-31T02:49:54;12.20;99.90
13330;DHT22;6734;48.638;8.896;2023-07-31T02:52:19;12.40;99.90
13330;DHT22;6734;48.638;8.896;2023-07-31T02:54:45;12.40;99.90
13330;DHT22;6734;48.638;8.896;2023-07-31T02:57:10;12.40;99.90
13330;DHT22;6734;48.638;8.896;2023-07-31T02:59:36;12.30;99.90
13330;DHT22;6734;48.638;8.896;2023-07-31T03:02:02;12.30;99.90
13330;DHT22;6734;48.638;8.896;2023-07-31T03:04:27;12.30;99.90
13330;DHT22;6734;48.638;8.896;2023-07-31T03:06:53;12.30;99.90
13330;DHT22;6734;48.638;8.896;2023-07-31T03:09:18;12.40;99.90
13330;DHT22;6734;48.638;8.896;2023-07-31T03:16:36;12.60;99.90
13330;DHT22;6734;48.638;8.896;2023-07-31T03:19:01;12.70;99.90
13330;DHT22;6734;48.638;8.896;2023-07-31T03:23:53;12.70;99.90
13330;DHT22;6734;48.638;8.896;2023-07-31T03:26:18;12.60;99.90
13330;DHT22;6734;48.638;8.896;2023-07-31T03:28:44;12.60;99.90
13330;DHT22;6734;48.638;8.896;2023-07-31T03:31:10;12.60;99.90
13330;DHT22;6734;48.638;8.896;2023-07-31T03:33:36;12.50;99.90
13330;DHT22;6734;48.638;8.896;2023-07-31T03:38:28;12.50;99.90
13330;DHT22;6734;48.638;8.896;2023-07-31T03:40:54;12.50;99.90
13330;DHT22;6734;48.638;8.896;2023-07-31T03:43:19;12.50;99.90
13330;DHT22;6734;48.638;8.896;2023-07-31T03:45:45;12.50;99.90
13330;DHT22;6734;48.638;8.896;2023-07-31T03:48:10;12.50;99.90
13330;DHT22;6734;48.638;8.896;2023-07-31T03:50:36;12.50;99.90
13330;DHT22;6734;48.638;8.896;2023-07-31T03:55:27;12.60;99.90
13330;DHT22;6734;48.638;8.896;2023-07-31T04:00:19;12.70;99.90
13330;DHT22;6734;48.638;8.896;2023-07-31T04:05:11;12.70;99.90
13330;DHT22;6734;48.638;8.896;2023-07-31T04:07:37;12.70;99.90
13330;DHT22;6734;48.638;8.896;2023-07-31T04:12:29;12.80;99.90
13330;DHT22;6734;48.638;8.896;2023-07-31T04:14:55;12.90;99.90
13330;DHT22;6734;48.638;8.896;2023-07-31T04:17:20;12.90;99.90
13330;DHT22;6734;48.638;8.896;2023-07-31T04:19:46;12.90;99.90
13330;DHT22;6734;48.638;8.896;2023-07-31T04:22:12;13.00;99.90
13330;DHT22;6734;48.638;8.896;2023-07-31T04:29:29;13.20;99.90
13330;DHT22;6734;48.638;8.896;2023-07-31T04:31:55;13.30;99.90
13330;DHT22;6734;48.638;8.896;2023-07-31T04:34:20;13.40;99.90
13330;DHT22;6734;48.638;8.896;2023-07-31T04:36:46;13.40;99.90
13330;DHT22;6734;48.638;8.896;2023-07-31T04:39:11;13.40;99.90
13330;DHT22;6734;48.638;8.896;2023-07-31T04:46:29;13.40;99.90
13330;DHT22;6734;48.638;8.896;2023-07-31T04:48:55;13.40;99.90
13330;DHT22;6734;48.638;8.896;2023-07-31T04:56:12;13.50;99.90
13330;DHT22;6734;48.638;8.896;2023-07-31T04:58:39;13.60;99.90
13330;DHT22;6734;48.638;8.896;2023-07-31T05:01:04;13.70;99.90
13330;DHT22;6734;48.638;8.896;2023-07-31T05:03:30;13.70;99.90
13330;DHT22;6734;48.638;8.896;2023-07-31T05:05:55;13.90;99.90
13330;DHT22;6734;48.638;8.896;2023-07-31T05:08:21;13.90;99.90
13330;DHT22;6734;48.638;8.896;2023-07-31T05:10:46;14.00;99.90
13330;DHT22;6734;48.638;8.896;2023-07-31T05:13:12;14.10;99.90
13330;DHT22;6734;48.638;8.896;2023-07-31T05:15:38;14.00;99.90
13330;DHT22;6734;48.638;8.896;2023-07-31T05:18:03;14.20;99.90
13330;DHT22;6734;48.638;8.896;2023-07-31T05:20:29;14.20;99.90
13330;DHT22;6734;48.638;8.896;2023-07-31T05:22:54;14.30;99.90
13330;DHT22;6734;48.638;8.896;2023-07-31T05:25:20;14.40;99.90
13330;DHT22;6734;48.638;8.896;2023-07-31T05:27:45;14.50;99.90
13330;DHT22;6734;48.638;8.896;2023-07-31T05:32:37;14.60;99.90
13330;DHT22;6734;48.638;8.896;2023-07-31T05:37:29;14.80;99.90
13330;DHT22;6734;48.638;8.896;2023-07-31T05:39:54;14.80;99.90
13330;DHT22;6734;48.638;8.896;2023-07-31T05:42:20;14.90;99.90
13330;DHT22;6734;48.638;8.896;2023-07-31T05:44:45;15.00;99.90
13330;DHT22;6734;48.638;8.896;2023-07-31T05:47:11;15.00;99.90
13330;DHT22;6734;48.638;8.896;2023-07-31T05:49:36;15.10;99.90
13330;DHT22;6734;48.638;8.896;2023-07-31T05:52:02;15.00;99.90
13330;DHT22;6734;48.638;8.896;2023-07-31T05:54:28;15.10;99.90
13330;DHT22;6734;48.638;8.896;2023-07-31T05:56:53;15.00;99.90
13330;DHT22;6734;48.638;8.896;2023-07-31T06:01:45;15.10;99.90
13330;DHT22;6734;48.638;8.896;2023-07-31T06:04:10;15.10;99.90
13330;DHT22;6734;48.638;8.896;2023-07-31T06:06:36;15.20;99.90
13330;DHT22;6734;48.638;8.896;2023-07-31T06:09:01;15.20;99.90
13330;DHT22;6734;48.638;8.896;2023-07-31T06:11:28;15.30;99.90
13330;DHT22;6734;48.638;8.896;2023-07-31T06:13:54;15.30;99.90
13330;DHT22;6734;48.638;8.896;2023-07-31T06:16:20;15.50;99.90
13330;DHT22;6734;48.638;8.896;2023-07-31T06:18:47;15.70;99.90
13330;DHT22;6734;48.638;8.896;2023-07-31T06:21:12;15.70;99.90
13330;DHT22;6734;48.638;8.896;2023-07-31T06:26:04;16.00;99.90
13330;DHT22;6734;48.638;8.896;2023-07-31T06:28:31;16.10;99.90
13330;DHT22;6734;48.638;8.896;2023-07-31T06:33:27;16.30;99.90
13330;DHT22;6734;48.638;8.896;2023-07-31T06:38:26;16.30;99.90
13330;DHT22;6734;48.638;8.896;2023-07-31T06:43:18;16.30;99.90
13330;DHT22;6734;48.638;8.896;2023-07-31T06:45:43;16.40;99.90
13330;DHT22;6734;48.638;8.896;2023-07-31T06:48:09;16.40;99.90
13330;DHT22;6734;48.638;8.896;2023-07-31T06:50:35;16.40;99.90
13330;DHT22;6734;48.638;8.896;2023-07-31T06:53:01;16.50;99.90
13330;DHT22;6734;48.638;8.896;2023-07-31T06:55:26;16.50;99.90
13330;DHT22;6734;48.638;8.896;2023-07-31T06:57:54;16.60;99.90
13330;DHT22;6734;48.638;8.896;2023-07-31T07:00:22;16.60;99.90
13330;DHT22;6734;48.638;8.896;2023-07-31T07:02:48;16.60;99.90
13330;DHT22;6734;48.638;8.896;2023-07-31T07:07:40;16.70;99.90
13330;DHT22;6734;48.638;8.896;2023-07-31T07:10:07;16.90;99.90
13330;DHT22;6734;48.638;8.896;2023-07-31T07:12:33;16.80;99.90
13330;DHT22;6734;48.638;8.896;2023-07-31T07:14:59;17.00;99.90
13330;DHT22;6734;48.638;8.896;2023-07-31T07:19:52;17.10;99.90
13330;DHT22;6734;48.638;8.896;2023-07-31T07:22:18;17.00;99.90
13330;DHT22;6734;48.638;8.896;2023-07-31T07:27:10;17.20;99.90
13330;DHT22;6734;48.638;8.896;2023-07-31T07:29:35;17.00;99.90
13330;DHT22;6734;48.638;8.896;2023-07-31T07:32:01;17.00;99.90
13330;DHT22;6734;48.638;8.896;2023-07-31T07:34:27;17.00;99.90
13330;DHT22;6734;48.638;8.896;2023-07-31T07:36:54;17.20;99.90
13330;DHT22;6734;48.638;8.896;2023-07-31T07:39:20;17.40;99.90
13330;DHT22;6734;48.638;8.896;2023-07-31T07:44:12;17.30;99.90
13330;DHT22;6734;48.638;8.896;2023-07-31T07:46:38;17.30;99.90
13330;DHT22;6734;48.638;8.896;2023-07-31T07:51:29;17.20;99.90
13330;DHT22;6734;48.638;8.896;2023-07-31T07:53:59;17.40;99.90
13330;DHT22;6734;48.638;8.896;2023-07-31T07:56:26;17.40;99.90
13330;DHT22;6734;48.638;8.896;2023-07-31T07:58:52;17.50;99.90
13330;DHT22;6734;48.638;8.896;2023-07-31T08:03:44;17.30;99.90
13330;DHT22;6734;48.638;8.896;2023-07-31T08:06:10;17.40;99.90
13330;DHT22;6734;48.638;8.896;2023-07-31T08:08:36;17.50;99.90
13330;DHT22;6734;48.638;8.896;2023-07-31T08:15:54;17.80;99.90
13330;DHT22;6734;48.638;8.896;2023-07-31T08:20:46;17.90;99.90
13330;DHT22;6734;48.638;8.896;2023-07-31T08:23:12;18.00;99.90
13330;DHT22;6734;48.638;8.896;2023-07-31T08:25:37;18.20;99.90
13330;DHT22;6734;48.638;8.896;2023-07-31T08:28:06;18.30;99.90
13330;DHT22;6734;48.638;8.896;2023-07-31T08:30:32;18.20;99.90
13330;DHT22;6734;48.638;8.896;2023-07-31T08:35:25;18.30;99.90
13330;DHT22;6734;48.638;8.896;2023-07-31T08:37:51;18.40;99.90
13330;DHT22;6734;48.638;8.896;2023-07-31T08:40:17;18.60;99.90
13330;DHT22;6734;48.638;8.896;2023-07-31T08:42:46;18.80;99.90
13330;DHT22;6734;48.638;8.896;2023-07-31T08:45:17;19.20;99.90
13330;DHT22;6734;48.638;8.896;2023-07-31T08:47:50;18.80;99.90
13330;DHT22;6734;48.638;8.896;2023-07-31T08:50:17;18.80;99.90
13330;DHT22;6734;48.638;8.896;2023-07-31T08:52:44;18.90;99.90
13330;DHT22;6734;48.638;8.896;2023-07-31T08:57:37;19.00;99.90
13330;DHT22;6734;48.638;8.896;2023-07-31T09:00:08;18.90;99.90
13330;DHT22;6734;48.638;8.896;2023-07-31T09:07:55;19.20;99.90
13330;DHT22;6734;48.638;8.896;2023-07-31T09:10:22;19.20;99.90
13330;DHT22;6734;48.638;8.896;2023-07-31T09:12:49;19.10;99.90
13330;DHT22;6734;48.638;8.896;2023-07-31T09:15:14;19.00;99.90
13330;DHT22;6734;48.638;8.896;2023-07-31T09:17:40;19.00;99.90
13330;DHT22;6734;48.638;8.896;2023-07-31T09:20:17;18.90;99.90
13330;DHT22;6734;48.638;8.896;2023-07-31T09:22:44;18.80;99.90
13330;DHT22;6734;48.638;8.896;2023-07-31T09:25:17;18.70;99.90
13330;DHT22;6734;48.638;8.896;2023-07-31T09:27:53;18.90;99.90
13330;DHT22;6734;48.638;8.896;2023-07-31T09:30:19;18.90;99.90
13330;DHT22;6734;48.638;8.896;2023-07-31T09:32:46;18.90;99.90
13330;DHT22;6734;48.638;8.896;2023-07-31T09:37:51;19.30;99.90
13330;DHT22;6734;48.638;8.896;2023-07-31T09:40:34;19.40;99.90
13330;DHT22;6734;48.638;8.896;2023-07-31T09:43:02;19.40;99.90
13330;DHT22;6734;48.638;8.896;2023-07-31T09:45:30;19.50;99.90
13330;DHT22;6734;48.638;8.896;2023-07-31T09:47:56;19.50;99.90
13330;DHT22;6734;48.638;8.896;2023-07-31T09:50:23;19.60;99.90
13330;DHT22;6734;48.638;8.896;2023-07-31T09:55:16;19.70;99.90
13330;DHT22;6734;48.638;8.896;2023-07-31T09:57:45;19.80;99.90
13330;DHT22;6734;48.638;8.896;2023-07-31T10:00:11;20.20;99.90
13330;DHT22;6734;48.638;8.896;2023-07-31T10:02:38;20.40;99.90
13330;DHT22;6734;48.638;8.896;2023-07-31T10:05:05;20.30;99.90
13330;DHT22;6734;48.638;8.896;2023-07-31T10:07:34;19.90;99.90
13330;DHT22;6734;48.638;8.896;2023-07-31T10:10:02;20.10;99.90
13330;DHT22;6734;48.638;8.896;2023-07-31T10:14:55;20.40;99.90
13330;DHT22;6734;48.638;8.896;2023-07-31T10:17:22;20.80;99.90
13330;DHT22;6734;48.638;8.896;2023-07-31T10:24:46;21.00;99.90
13330;DHT22;6734;48.638;8.896;2023-07-31T10:27:12;20.70;99.90
13330;DHT22;6734;48.638;8.896;2023-07-31T10:29:38;20.90;99.90
13330;DHT22;6734;48.638;8.896;2023-07-31T10:32:06;21.20;99.90
13330;DHT22;6734;48.638;8.896;2023-07-31T10:34:35;21.10;99.90
13330;DHT22;6734;48.638;8.896;2023-07-31T10:44:59;21.50;99.90
13330;DHT22;6734;48.638;8.896;2023-07-31T10:49:51;21.60;99.90
13330;DHT22;6734;48.638;8.896;2023-07-31T10:52:21;21.60;99.90
13330;DHT22;6734;48.638;8.896;2023-07-31T10:57:58;21.10;99.90
13330;DHT22;6734;48.638;8.896;2023-07-31T11:03:09;21.10;99.90
13330;DHT22;6734;48.638;8.896;2023-07-31T11:05:45;21.20;99.90
13330;DHT22;6734;48.638;8.896;2023-07-31T11:08:13;21.00;99.90
13330;DHT22;6734;48.638;8.896;2023-07-31T11:10:39;20.80;99.90
13330;DHT22;6734;48.638;8.896;2023-07-31T11:13:05;20.70;99.90
13330;DHT22;6734;48.638;8.896;2023-07-31T11:17:57;20.80;99.90
13330;DHT22;6734;48.638;8.896;2023-07-31T11:20:25;20.80;99.90
13330;DHT22;6734;48.638;8.896;2023-07-31T11:25:18;20.60;99.90
13330;DHT22;6734;48.638;8.896;2023-07-31T11:27:43;20.50;99.90
13330;DHT22;6734;48.638;8.896;2023-07-31T11:30:09;20.30;99.90
13330;DHT22;6734;48.638;8.896;2023-07-31T11:32:38;20.60;99.90
13330;DHT22;6734;48.638;8.896;2023-07-31T11:35:04;20.50;99.90
13330;DHT22;6734;48.638;8.896;2023-07-31T11:37:43;20.50;99.90
13330;DHT22;6734;48.638;8.896;2023-07-31T11:40:10;20.40;99.90
13330;DHT22;6734;48.638;8.896;2023-07-31T11:42:36;20.40;99.90
13330;DHT22;6734;48.638;8.896;2023-07-31T11:47:34;20.40;99.90
13330;DHT22;6734;48.638;8.896;2023-07-31T11:50:01;20.40;99.90
13330;DHT22;6734;48.638;8.896;2023-07-31T11:52:29;20.30;99.90
13330;DHT22;6734;48.638;8.896;2023-07-31T11:54:57;20.40;99.90
13330;DHT22;6734;48.638;8.896;2023-07-31T11:57:24;20.30;99.90
13330;DHT22;6734;48.638;8.896;2023-07-31T11:59:50;20.30;99.90
13330;DHT22;6734;48.638;8.896;2023-07-31T12:02:17;20.40;99.90
13330;DHT22;6734;48.638;8.896;2023-07-31T12:04:43;20.50;99.90
13330;DHT22;6734;48.638;8.896;2023-07-31T12:07:09;20.60;99.90
13330;DHT22;6734;48.638;8.896;2023-07-31T12:12:00;20.90;99.90
13330;DHT22;6734;48.638;8.896;2023-07-31T12:14:29;20.80;99.90
13330;DHT22;6734;48.638;8.896;2023-07-31T12:17:00;20.70;99.90
13330;DHT22;6734;48.638;8.896;2023-07-31T12:19:29;20.60;99.90
13330;DHT22;6734;48.638;8.896;2023-07-31T12:21:59;20.70;99.90
13330;DHT22;6734;48.638;8.896;2023-07-31T12:26:52;21.60;99.90
13330;DHT22;6734;48.638;8.896;2023-07-31T12:29:18;22.00;99.90
13330;DHT22;6734;48.638;8.896;2023-07-31T12:31:43;22.40;99.90
13330;DHT22;6734;48.638;8.896;2023-07-31T12:34:17;23.30;99.90
13330;DHT22;6734;48.638;8.896;2023-07-31T12:36:43;24.80;99.90
13330;DHT22;6734;48.638;8.896;2023-07-31T12:39:09;25.40;99.90
13330;DHT22;6734;48.638;8.896;2023-07-31T12:44:01;24.90;99.90
13330;DHT22;6734;48.638;8.896;2023-07-31T12:46:28;24.80;99.90
13330;DHT22;6734;48.638;8.896;2023-07-31T12:48:54;24.20;99.90
13330;DHT22;6734;48.638;8.896;2023-07-31T12:51:19;23.70;99.90
13330;DHT22;6734;48.638;8.896;2023-07-31T12:53:46;23.90;99.90
13330;DHT22;6734;48.638;8.896;2023-07-31T12:56:11;23.80;99.90
13330;DHT22;6734;48.638;8.896;2023-07-31T12:58:37;23.60;99.90
13330;DHT22;6734;48.638;8.896;2023-07-31T13:01:02;23.40;99.90
13330;DHT22;6734;48.638;8.896;2023-07-31T13:03:28;23.60;99.90
13330;DHT22;6734;48.638;8.896;2023-07-31T13:05:54;23.80;99.90
13330;DHT22;6734;48.638;8.896;2023-07-31T13:08:20;23.20;99.90
13330;DHT22;6734;48.638;8.896;2023-07-31T13:10:46;23.30;99.90
13330;DHT22;6734;48.638;8.896;2023-07-31T13:15:37;23.90;99.90
13330;DHT22;6734;48.638;8.896;2023-07-31T13:18:03;24.00;99.90
13330;DHT22;6734;48.638;8.896;2023-07-31T13:22:54;24.40;99.90
13330;DHT22;6734;48.638;8.896;2023-07-31T13:25:20;24.60;99.90
13330;DHT22;6734;48.638;8.896;2023-07-31T13:27:45;25.60;99.90
13330;DHT22;6734;48.638;8.896;2023-07-31T13:35:05;25.90;99.90
13330;DHT22;6734;48.638;8.896;2023-07-31T13:37:31;25.10;99.90
13330;DHT22;6734;48.638;8.896;2023-07-31T13:42:22;24.00;99.90
13330;DHT22;6734;48.638;8.896;2023-07-31T13:44:48;23.00;99.90
13330;DHT22;6734;48.638;8.896;2023-07-31T13:47:14;22.60;99.90
13330;DHT22;6734;48.638;8.896;2023-07-31T13:49:40;22.50;99.90
13330;DHT22;6734;48.638;8.896;2023-07-31T13:54:33;22.60;99.90
13330;DHT22;6734;48.638;8.896;2023-07-31T13:56:58;22.40;99.90
13330;DHT22;6734;48.638;8.896;2023-07-31T13:59:24;22.20;99.90
13330;DHT22;6734;48.638;8.896;2023-07-31T14:04:16;21.90;99.90
13330;DHT22;6734;48.638;8.896;2023-07-31T14:16:27;21.60;99.90
13330;DHT22;6734;48.638;8.896;2023-07-31T14:21:19;21.60;99.90
13330;DHT22;6734;48.638;8.896;2023-07-31T14:26:11;21.60;99.90
13330;DHT22;6734;48.638;8.896;2023-07-31T14:28:37;21.70;99.90
13330;DHT22;6734;48.638;8.896;2023-07-31T14:31:03;21.70;99.90
13330;DHT22;6734;48.638;8.896;2023-07-31T14:33:29;22.10;99.90
13330;DHT22;6734;48.638;8.896;2023-07-31T14:35:54;22.50;99.90
13330;DHT22;6734;48.638;8.896;2023-07-31T14:38:20;22.70;99.90
13330;DHT22;6734;48.638;8.896;2023-07-31T14:40:46;22.80;99.90
13330;DHT22;6734;48.638;8.896;2023-07-31T14:43:11;22.70;99.90
13330;DHT22;6734;48.638;8.896;2023-07-31T14:48:03;22.70;99.90
13330;DHT22;6734;48.638;8.896;2023-07-31T14:50:29;22.60;99.90
13330;DHT22;6734;48.638;8.896;2023-07-31T14:52:54;22.30;99.90
13330;DHT22;6734;48.638;8.896;2023-07-31T14:55:20;22.60;99.90
13330;DHT22;6734;48.638;8.896;2023-07-31T14:57:46;22.50;99.90
13330;DHT22;6734;48.638;8.896;2023-07-31T15:00:12;22.60;99.90
13330;DHT22;6734;48.638;8.896;2023-07-31T15:02:38;22.60;99.90
13330;DHT22;6734;48.638;8.896;2023-07-31T15:05:04;22.40;99.90
13330;DHT22;6734;48.638;8.896;2023-07-31T15:09:56;22.30;99.90
13330;DHT22;6734;48.638;8.896;2023-07-31T15:12:22;22.20;99.90
13330;DHT22;6734;48.638;8.896;2023-07-31T15:14:51;22.40;99.90
13330;DHT22;6734;48.638;8.896;2023-07-31T15:17:17;22.40;99.90
13330;DHT22;6734;48.638;8.896;2023-07-31T15:27:01;22.60;99.90
13330;DHT22;6734;48.638;8.896;2023-07-31T15:29:29;22.70;99.90
13330;DHT22;6734;48.638;8.896;2023-07-31T15:31:54;22.70;99.90
13330;DHT22;6734;48.638;8.896;2023-07-31T15:34:20;22.70;99.90
13330;DHT22;6734;48.638;8.896;2023-07-31T15:36:46;22.30;99.90
13330;DHT22;6734;48.638;8.896;2023-07-31T15:39:12;22.40;99.90
13330;DHT22;6734;48.638;8.896;2023-07-31T15:41:38;22.30;99.90
13330;DHT22;6734;48.638;8.896;2023-07-31T15:44:04;22.30;99.90
13330;DHT22;6734;48.638;8.896;2023-07-31T15:48:56;22.30;99.90
13330;DHT22;6734;48.638;8.896;2023-07-31T15:56:14;22.20;99.90
13330;DHT22;6734;48.638;8.896;2023-07-31T16:05:58;23.40;99.90
13330;DHT22;6734;48.638;8.896;2023-07-31T16:08:23;23.80;99.90
13330;DHT22;6734;48.638;8.896;2023-07-31T16:10:49;23.70;99.90
13330;DHT22;6734;48.638;8.896;2023-07-31T16:13:14;23.70;99.90
13330;DHT22;6734;48.638;8.896;2023-07-31T16:15:40;23.00;99.90
13330;DHT22;6734;48.638;8.896;2023-07-31T16:18:05;22.90;99.90
13330;DHT22;6734;48.638;8.896;2023-07-31T16:20:31;22.80;99.90
13330;DHT22;6734;48.638;8.896;2023-07-31T16:22:57;22.70;99.90
13330;DHT22;6734;48.638;8.896;2023-07-31T16:27:48;22.40;99.90
13330;DHT22;6734;48.638;8.896;2023-07-31T16:30:14;22.30;99.90
13330;DHT22;6734;48.638;8.896;2023-07-31T16:32:39;22.30;99.90
13330;DHT22;6734;48.638;8.896;2023-07-31T16:37:31;21.90;99.90
13330;DHT22;6734;48.638;8.896;2023-07-31T16:39:57;21.80;99.90
13330;DHT22;6734;48.638;8.896;2023-07-31T16:42:22;21.60;99.90
13330;DHT22;6734;48.638;8.896;2023-07-31T16:44:48;21.50;99.90
13330;DHT22;6734;48.638;8.896;2023-07-31T16:47:14;21.50;99.90
13330;DHT22;6734;48.638;8.896;2023-07-31T16:49:41;21.50;99.90
13330;DHT22;6734;48.638;8.896;2023-07-31T16:52:06;21.60;99.90
13330;DHT22;6734;48.638;8.896;2023-07-31T16:54:33;21.70;99.90
13330;DHT22;6734;48.638;8.896;2023-07-31T16:56:59;21.60;99.90
13330;DHT22;6734;48.638;8.896;2023-07-31T16:59:24;21.60;99.90
13330;DHT22;6734;48.638;8.896;2023-07-31T17:01:50;21.70;99.90
13330;DHT22;6734;48.638;8.896;2023-07-31T17:04:16;21.50;99.90
13330;DHT22;6734;48.638;8.896;2023-07-31T17:06:42;21.50;99.90
13330;DHT22;6734;48.638;8.896;2023-07-31T17:09:07;21.50;99.90
13330;DHT22;6734;48.638;8.896;2023-07-31T17:11:33;21.60;99.90
13330;DHT22;6734;48.638;8.896;2023-07-31T17:13:59;21.40;99.90
13330;DHT22;6734;48.638;8.896;2023-07-31T17:16:28;21.50;99.90
13330;DHT22;6734;48.638;8.896;2023-07-31T17:18:54;21.40;99.90
13330;DHT22;6734;48.638;8.896;2023-07-31T17:21:20;21.40;99.90
13330;DHT22;6734;48.638;8.896;2023-07-31T17:23:45;21.40;99.90
13330;DHT22;6734;48.638;8.896;2023-07-31T17:26:11;21.30;99.90
13330;DHT22;6734;48.638;8.896;2023-07-31T17:31:04;21.20;99.90
13330;DHT22;6734;48.638;8.896;2023-07-31T17:35:56;21.30;99.90
13330;DHT22;6734;48.638;8.896;2023-07-31T17:38:21;21.20;99.90
13330;DHT22;6734;48.638;8.896;2023-07-31T17:40:47;21.30;99.90
13330;DHT22;6734;48.638;8.896;2023-07-31T17:43:12;21.30;99.90
13330;DHT22;6734;48.638;8.896;2023-07-31T17:50:32;21.20;99.90
13330;DHT22;6734;48.638;8.896;2023-07-31T17:52:57;21.00;99.90
13330;DHT22;6734;48.638;8.896;2023-07-31T17:55:23;21.00;99.90
13330;DHT22;6734;48.638;8.896;2023-07-31T17:57:48;20.90;99.90
13330;DHT22;6734;48.638;8.896;2023-07-31T18:02:40;21.00;99.90
13330;DHT22;6734;48.638;8.896;2023-07-31T18:05:06;21.00;99.90
13330;DHT22;6734;48.638;8.896;2023-07-31T18:09:58;20.90;99.90
13330;DHT22;6734;48.638;8.896;2023-07-31T18:12:26;20.80;99.90
13330;DHT22;6734;48.638;8.896;2023-07-31T18:14:51;20.70;99.90
13330;DHT22;6734;48.638;8.896;2023-07-31T18:17:17;20.60;99.90
13330;DHT22;6734;48.638;8.896;2023-07-31T18:19:42;20.40;99.90
13330;DHT22;6734;48.638;8.896;2023-07-31T18:22:08;20.20;99.90
13330;DHT22;6734;48.638;8.896;2023-07-31T18:24:33;20.00;99.90
13330;DHT22;6734;48.638;8.896;2023-07-31T18:29:25;19.50;99.90
13330;DHT22;6734;48.638;8.896;2023-07-31T18:31:50;19.00;99.90
13330;DHT22;6734;48.638;8.896;2023-07-31T18:34:16;18.50;99.90
13330;DHT22;6734;48.638;8.896;2023-07-31T18:41:35;17.80;99.90
13330;DHT22;6734;48.638;8.896;2023-07-31T18:46:26;17.60;99.90
13330;DHT22;6734;48.638;8.896;2023-07-31T18:48:52;17.50;99.90
13330;DHT22;6734;48.638;8.896;2023-07-31T18:53:44;17.20;99.90
13330;DHT22;6734;48.638;8.896;2023-07-31T18:56:10;17.30;99.90
13330;DHT22;6734;48.638;8.896;2023-07-31T18:58:35;17.40;99.90
13330;DHT22;6734;48.638;8.896;2023-07-31T19:01:01;17.30;99.90
13330;DHT22;6734;48.638;8.896;2023-07-31T19:03:26;17.30;99.90
13330;DHT22;6734;48.638;8.896;2023-07-31T19:06:03;17.20;99.90
13330;DHT22;6734;48.638;8.896;2023-07-31T19:10:56;17.00;99.90
13330;DHT22;6734;48.638;8.896;2023-07-31T19:15:47;16.90;99.90
13330;DHT22;6734;48.638;8.896;2023-07-31T19:18:14;16.70;99.90
13330;DHT22;6734;48.638;8.896;2023-07-31T19:20:40;16.80;99.90
13330;DHT22;6734;48.638;8.896;2023-07-31T19:23:06;16.90;99.90
13330;DHT22;6734;48.638;8.896;2023-07-31T19:27:57;16.80;99.90
13330;DHT22;6734;48.638;8.896;2023-07-31T19:32:49;16.80;99.90
13330;DHT22;6734;48.638;8.896;2023-07-31T19:35:15;16.90;99.90
13330;DHT22;6734;48.638;8.896;2023-07-31T19:40:07;16.90;99.90
13330;DHT22;6734;48.638;8.896;2023-07-31T19:42:33;16.90;99.90
13330;DHT22;6734;48.638;8.896;2023-07-31T19:52:19;16.90;99.90
13330;DHT22;6734;48.638;8.896;2023-07-31T19:57:10;16.80;99.90
13330;DHT22;6734;48.638;8.896;2023-07-31T19:59:36;16.80;99.90
13330;DHT22;6734;48.638;8.896;2023-07-31T20:02:01;16.70;99.90
13330;DHT22;6734;48.638;8.896;2023-07-31T20:04:27;16.70;99.90
13330;DHT22;6734;48.638;8.896;2023-07-31T20:09:18;16.60;99.90
13330;DHT22;6734;48.638;8.896;2023-07-31T20:14:11;16.60;99.90
13330;DHT22;6734;48.638;8.896;2023-07-31T20:16:36;16.60;99.90
13330;DHT22;6734;48.638;8.896;2023-07-31T20:19:08;16.70;99.90
13330;DHT22;6734;48.638;8.896;2023-07-31T20:24:04;16.80;99.90
13330;DHT22;6734;48.638;8.896;2023-07-31T20:26:29;16.60;99.90
13330;DHT22;6734;48.638;8.896;2023-07-31T20:33:47;16.40;99.90
13330;DHT22;6734;48.638;8.896;2023-07-31T20:36:14;16.40;99.90